createdAt,value
2022-09-01T00:00:01.829Z,122.65
2022-09-01T00:02:28.869Z,119.88
2022-09-01T00:04:55.471Z,117.95
2022-09-01T00:07:21.770Z,116.80
2022-09-01T00:09:48.062Z,116.90
2022-09-01T00:12:14.515Z,117.65
2022-09-01T00:14:41.601Z,117.35
2022-09-01T00:17:08.089Z,114.45
2022-09-01T00:19:34.926Z,112.00
2022-09-01T00:22:01.505Z,110.78
2022-09-01T00:24:27.894Z,106.35
2022-09-01T00:26:55.108Z,108.00
2022-09-01T00:29:21.514Z,105.75
2022-09-01T00:31:47.922Z,107.70
2022-09-01T00:34:14.320Z,103.43
2022-09-01T00:36:40.747Z,102.75
2022-09-01T00:39:07.123Z,101.07
2022-09-01T00:41:39.768Z,103.40
2022-09-01T00:44:06.441Z,98.90
2022-09-01T00:46:32.927Z,98.20
2022-09-01T00:49:01.871Z,99.20
2022-09-01T00:51:28.222Z,97.20
2022-09-01T00:53:54.832Z,95.90
2022-09-01T00:56:21.194Z,97.20
2022-09-01T00:58:47.509Z,94.13
2022-09-01T01:01:13.861Z,94.07
2022-09-01T01:03:40.725Z,91.93
2022-09-01T01:06:07.022Z,90.85
2022-09-01T01:08:33.394Z,92.97
2022-09-01T01:10:59.928Z,93.30
2022-09-01T01:13:26.372Z,90.93
2022-09-01T01:15:52.718Z,91.38
2022-09-01T01:18:23.454Z,91.07
2022-09-01T01:20:50.241Z,89.43
2022-09-01T01:23:16.532Z,87.78
2022-09-01T01:25:44.233Z,88.15
2022-09-01T01:28:10.543Z,86.65
2022-09-01T01:30:37.177Z,86.97
2022-09-01T01:33:03.599Z,83.80
2022-09-01T01:35:29.930Z,89.28
2022-09-01T01:37:56.366Z,85.55
2022-09-01T01:40:22.834Z,82.90
2022-09-01T01:42:49.561Z,84.70
2022-09-01T01:45:16.113Z,81.72
2022-09-01T01:47:42.509Z,81.22
2022-09-01T01:50:09.053Z,82.28
2022-09-01T01:52:35.339Z,80.70
2022-09-01T01:55:05.328Z,74.53
2022-09-01T01:57:31.734Z,77.13
2022-09-01T01:59:58.081Z,75.63
2022-09-01T02:02:24.513Z,75.22
2022-09-01T02:04:50.990Z,76.63
2022-09-01T02:07:17.826Z,79.40
2022-09-01T02:09:44.224Z,73.03
2022-09-01T02:12:10.601Z,75.95
2022-09-01T02:14:37.054Z,74.72
2022-09-01T02:17:03.429Z,72.38
2022-09-01T02:19:29.889Z,69.80
2022-09-01T02:21:56.275Z,71.70
2022-09-01T02:24:22.665Z,71.97
2022-09-01T02:26:48.974Z,70.82
2022-09-01T02:29:15.349Z,70.90
2022-09-01T02:31:42.374Z,68.28
2022-09-01T02:34:08.779Z,70.97
2022-09-01T02:36:35.173Z,69.85
2022-09-01T02:39:01.531Z,71.05
2022-09-01T02:41:27.976Z,68.53
2022-09-01T02:43:54.524Z,67.68
2022-09-01T02:46:20.912Z,68.07
2022-09-01T02:48:47.388Z,64.28
2022-09-01T02:51:13.646Z,62.33
2022-09-01T02:53:39.962Z,63.63
2022-09-01T02:56:06.490Z,62.40
2022-09-01T02:58:32.899Z,61.28
2022-09-01T03:01:00.036Z,61.28
2022-09-01T03:03:26.833Z,58.72
2022-09-01T03:05:53.365Z,58.75
2022-09-01T03:08:19.864Z,57.33
2022-09-01T03:10:46.796Z,60.95
2022-09-01T03:13:13.309Z,59.38
2022-09-01T03:15:39.632Z,59.65
2022-09-01T03:18:06.054Z,57.70
2022-09-01T03:20:32.488Z,55.15
2022-09-01T03:22:58.828Z,54.20
2022-09-01T03:25:25.157Z,53.97
2022-09-01T03:27:51.706Z,56.25
2022-09-01T03:30:18.034Z,53.70
2022-09-01T03:32:46.191Z,51.28
2022-09-01T03:35:12.549Z,51.92
2022-09-01T03:37:38.929Z,51.50
2022-09-01T03:40:05.311Z,50.53
2022-09-01T03:42:31.630Z,50.03
2022-09-01T03:44:58.027Z,50.85
2022-09-01T03:47:24.469Z,51.53
2022-09-01T03:49:50.914Z,48.13
2022-09-01T03:52:17.368Z,48.33
2022-09-01T03:54:43.800Z,45.60
2022-09-01T03:57:10.105Z,46.90
2022-09-01T03:59:36.574Z,46.50
2022-09-01T04:02:04.216Z,47.42
2022-09-01T04:04:30.821Z,47.33
2022-09-01T04:06:57.449Z,44.20
2022-09-01T04:09:25.122Z,45.92
2022-09-01T04:11:51.500Z,43.80
2022-09-01T04:14:17.902Z,43.38
2022-09-01T04:16:44.951Z,43.40
2022-09-01T04:19:11.368Z,43.03
2022-09-01T04:21:37.634Z,43.50
2022-09-01T04:24:03.965Z,42.72
2022-09-01T04:26:30.266Z,40.47
2022-09-01T04:28:57.455Z,39.83
2022-09-01T04:31:24.007Z,40.40
2022-09-01T04:33:50.604Z,40.72
2022-09-01T04:36:17.105Z,36.45
2022-09-01T04:38:43.557Z,36.65
2022-09-01T04:41:09.816Z,37.35
2022-09-01T04:43:36.177Z,36.55
2022-09-01T04:46:02.788Z,35.65
2022-09-01T04:48:29.621Z,36.90
2022-09-01T04:50:56.459Z,34.95
2022-09-01T04:53:22.801Z,36.42
2022-09-01T04:55:54.816Z,35.67
2022-09-01T04:58:21.222Z,34.58
2022-09-01T05:00:47.737Z,34.63
2022-09-01T05:03:14.130Z,35.75
2022-09-01T05:05:40.508Z,35.90
2022-09-01T05:08:06.908Z,34.03
2022-09-01T05:10:33.209Z,34.40
2022-09-01T05:12:59.533Z,34.25
2022-09-01T05:15:25.878Z,34.35
2022-09-01T05:17:52.441Z,33.63
2022-09-01T05:20:20.698Z,31.58
2022-09-01T05:22:47.057Z,32.55
2022-09-01T05:25:13.435Z,31.95
2022-09-01T05:27:39.855Z,33.10
2022-09-01T05:30:06.361Z,30.42
2022-09-01T05:32:32.760Z,32.15
2022-09-01T05:34:59.145Z,30.73
2022-09-01T05:37:25.553Z,31.85
2022-09-01T05:39:51.845Z,31.10
2022-09-01T05:42:18.182Z,31.00
2022-09-01T05:44:44.611Z,29.05
2022-09-01T05:47:11.030Z,29.98
2022-09-01T05:49:47.086Z,27.48
2022-09-01T05:52:13.438Z,27.05
2022-09-01T05:54:39.930Z,23.63
2022-09-01T05:57:23.768Z,23.55
2022-09-01T05:59:52.618Z,24.60
2022-09-01T06:02:19.096Z,24.02
2022-09-01T06:04:45.562Z,24.23
2022-09-01T06:07:13.642Z,22.83
2022-09-01T06:09:43.252Z,22.95
2022-09-01T06:12:13.815Z,22.80
2022-09-01T06:17:06.883Z,23.10
2022-09-01T06:19:36.974Z,22.90
2022-09-01T06:22:04.159Z,23.58
2022-09-01T06:24:30.584Z,22.55
2022-09-01T06:26:56.954Z,23.55
2022-09-01T06:29:23.356Z,24.08
2022-09-01T06:31:49.839Z,25.60
2022-09-01T06:34:16.250Z,25.15
2022-09-01T06:36:42.660Z,24.60
2022-09-01T06:39:09.029Z,27.08
2022-09-01T06:41:35.355Z,26.27
2022-09-01T06:44:01.673Z,27.08
2022-09-01T06:46:28.197Z,24.63
2022-09-01T06:48:54.683Z,24.45
2022-09-01T06:51:21.821Z,25.33
2022-09-01T06:53:49.350Z,23.60
2022-09-01T06:56:15.883Z,25.27
2022-09-01T06:58:42.274Z,23.95
2022-09-01T07:01:10.377Z,20.73
2022-09-01T07:03:39.847Z,21.93
2022-09-01T07:06:06.260Z,20.30
2022-09-01T07:08:32.987Z,22.30
2022-09-01T07:16:33.375Z,20.48
2022-09-01T07:19:02.816Z,18.33
2022-09-01T07:21:39.127Z,20.35
2022-09-01T07:24:11.089Z,18.50
2022-09-01T07:26:46.375Z,18.63
2022-09-01T07:29:13.826Z,18.10
2022-09-01T07:34:46.310Z,18.63
2022-09-01T07:45:29.366Z,20.42
2022-09-01T07:47:55.785Z,20.17
2022-09-01T07:50:39.820Z,18.95
2022-09-01T07:53:07.213Z,19.80
2022-09-01T07:55:33.584Z,20.17
2022-09-01T07:58:01.268Z,19.70
2022-09-01T08:00:31.025Z,19.77
2022-09-01T08:02:57.886Z,22.30
2022-09-01T08:05:25.035Z,23.17
2022-09-01T08:07:52.480Z,22.73
2022-09-01T08:10:20.217Z,22.55
2022-09-01T08:12:46.982Z,21.10
2022-09-01T08:18:08.730Z,21.75
2022-09-01T08:20:35.121Z,20.00
2022-09-01T08:23:01.710Z,20.42
2022-09-01T08:25:28.000Z,20.25
2022-09-01T08:27:59.801Z,20.42
2022-09-01T08:30:26.418Z,19.95
2022-09-01T08:32:53.175Z,21.48
2022-09-01T08:35:19.989Z,20.52
2022-09-01T08:37:46.384Z,22.20
2022-09-01T08:40:12.945Z,20.75
2022-09-01T08:42:39.397Z,20.38
2022-09-01T08:45:05.750Z,20.23
2022-09-01T08:47:43.703Z,17.17
2022-09-01T08:50:11.007Z,18.88
2022-09-01T08:52:37.368Z,18.58
2022-09-01T08:55:03.721Z,17.23
2022-09-01T08:57:30.088Z,17.27
2022-09-01T08:59:56.793Z,17.70
2022-09-01T09:02:23.367Z,16.08
2022-09-01T09:04:49.873Z,18.02
2022-09-01T09:07:16.176Z,17.00
2022-09-01T09:09:42.598Z,16.02
2022-09-01T09:12:08.935Z,15.70
2022-09-01T09:14:35.293Z,16.23
2022-09-01T09:17:01.971Z,14.95
2022-09-01T09:19:28.348Z,15.45
2022-09-01T09:21:54.977Z,14.18
2022-09-01T09:24:22.684Z,13.82
2022-09-01T09:26:49.362Z,13.68
2022-09-01T09:29:15.682Z,13.40
2022-09-01T09:31:42.116Z,13.65
2022-09-01T09:34:09.998Z,12.88
2022-09-01T09:36:36.422Z,13.45
2022-09-01T09:39:02.970Z,12.75
2022-09-01T09:41:30.069Z,13.00
2022-09-01T09:43:56.417Z,12.00
2022-09-01T09:46:24.542Z,12.52
2022-09-01T09:48:52.049Z,11.43
2022-09-01T09:51:18.383Z,10.95
2022-09-01T09:53:44.733Z,11.70
2022-09-01T09:56:11.071Z,11.27
2022-09-01T09:58:37.488Z,11.50
2022-09-01T10:01:05.256Z,11.40
2022-09-01T10:03:31.819Z,11.52
2022-09-01T10:05:58.215Z,11.10
2022-09-01T10:08:24.563Z,11.02
2022-09-01T10:10:58.180Z,11.55
2022-09-01T10:13:25.068Z,10.60
2022-09-01T10:15:51.670Z,11.18
2022-09-01T10:18:28.493Z,10.52
2022-09-01T10:20:55.618Z,10.15
2022-09-01T10:23:22.749Z,9.80
2022-09-01T10:25:50.236Z,8.95
2022-09-01T10:28:20.976Z,9.73
2022-09-01T10:30:47.611Z,9.65
2022-09-01T10:33:19.912Z,12.27
2022-09-01T10:35:48.179Z,19.40
2022-09-01T10:38:14.675Z,21.25
2022-09-01T10:40:43.851Z,19.13
2022-09-01T10:43:12.431Z,19.40
2022-09-01T10:45:43.145Z,18.38
2022-09-01T10:48:13.281Z,17.08
2022-09-01T10:50:39.707Z,18.48
2022-09-01T10:53:06.441Z,20.50
2022-09-01T10:55:32.907Z,20.08
2022-09-01T10:58:08.483Z,20.45
2022-09-01T11:01:10.748Z,20.10
2022-09-01T11:03:40.895Z,19.23
2022-09-01T11:06:12.310Z,18.25
2022-09-01T11:08:39.439Z,19.63
2022-09-01T11:11:05.704Z,20.45
2022-09-01T11:13:33.037Z,22.20
2022-09-01T11:16:00.746Z,27.13
2022-09-01T11:18:27.207Z,27.77
2022-09-01T11:20:53.892Z,25.75
2022-09-01T11:23:20.262Z,23.27
2022-09-01T11:25:47.441Z,24.90
2022-09-01T11:28:14.293Z,24.02
2022-09-01T11:30:40.842Z,24.80
2022-09-01T11:33:08.354Z,23.20
2022-09-01T11:35:34.901Z,26.33
2022-09-01T11:38:03.668Z,24.10
2022-09-01T11:40:32.588Z,24.80
2022-09-01T11:42:59.130Z,25.75
2022-09-01T11:45:25.918Z,24.60
2022-09-01T11:47:52.273Z,22.70
2022-09-01T11:50:18.606Z,22.17
2022-09-01T11:52:44.967Z,20.40
2022-09-01T11:55:11.265Z,21.05
2022-09-01T11:57:37.598Z,21.38
2022-09-01T12:00:03.992Z,21.40
2022-09-01T12:02:30.762Z,20.02
2022-09-01T12:04:57.294Z,20.75
2022-09-01T12:07:23.929Z,21.30
2022-09-01T12:09:50.665Z,20.63
2022-09-01T12:12:17.030Z,21.80
2022-09-01T12:15:02.363Z,21.80
2022-09-01T12:17:29.933Z,20.63
2022-09-01T12:19:56.285Z,21.38
2022-09-01T12:22:22.600Z,20.00
2022-09-01T12:24:49.118Z,20.67
2022-09-01T12:27:16.687Z,20.27
2022-09-01T12:29:43.022Z,20.27
2022-09-01T12:32:09.395Z,19.35
2022-09-01T12:34:35.823Z,17.83
2022-09-01T12:37:02.558Z,19.33
2022-09-01T12:39:29.186Z,18.83
2022-09-01T12:41:55.656Z,18.77
2022-09-01T12:44:21.989Z,19.73
2022-09-01T12:46:48.329Z,18.10
2022-09-01T12:51:46.081Z,18.10
2022-09-01T12:54:12.415Z,16.63
2022-09-01T12:56:38.762Z,16.15
2022-09-01T12:59:05.117Z,16.73
2022-09-01T13:01:31.564Z,17.73
2022-09-01T13:03:58.063Z,17.35
2022-09-01T13:06:24.494Z,16.52
2022-09-01T13:08:50.871Z,15.73
2022-09-01T13:11:17.386Z,16.38
2022-09-01T13:13:43.656Z,15.88
2022-09-01T13:16:09.980Z,16.55
2022-09-01T13:19:10.469Z,15.45
2022-09-01T13:21:22.624Z,15.63
2022-09-01T13:23:49.002Z,14.30
2022-09-01T13:26:15.320Z,15.38
2022-09-01T13:28:41.813Z,14.88
2022-09-01T13:34:11.035Z,14.50
2022-09-01T13:36:43.668Z,14.23
2022-09-01T13:39:12.345Z,14.35
2022-09-01T13:41:38.955Z,13.75
2022-09-01T13:44:05.510Z,13.10
2022-09-01T13:46:31.973Z,13.50
2022-09-01T13:49:42.143Z,14.02
2022-09-01T13:51:46.678Z,13.60
2022-09-01T13:54:12.982Z,13.60
2022-09-01T13:56:39.445Z,12.82
2022-09-01T13:59:05.902Z,13.13
2022-09-01T14:01:32.210Z,13.00
2022-09-01T14:04:00.502Z,12.70
2022-09-01T14:06:27.406Z,13.88
2022-09-01T14:08:53.789Z,12.88
2022-09-01T14:11:20.149Z,13.68
2022-09-01T14:13:46.430Z,14.90
2022-09-01T14:16:12.931Z,14.82
2022-09-01T14:18:39.552Z,15.30
2022-09-01T14:21:05.942Z,15.07
2022-09-01T14:23:32.369Z,14.95
2022-09-01T14:25:58.883Z,14.00
2022-09-01T14:28:25.430Z,14.25
2022-09-01T14:33:17.076Z,13.50
2022-09-01T14:35:43.654Z,13.40
2022-09-01T14:38:10.176Z,12.63
2022-09-01T14:40:36.944Z,13.70
2022-09-01T14:43:03.360Z,14.05
2022-09-01T14:45:29.705Z,13.32
2022-09-01T14:47:56.494Z,12.68
2022-09-01T14:50:23.386Z,12.65
2022-09-01T14:52:49.918Z,12.82
2022-09-01T14:55:16.936Z,12.35
2022-09-01T14:57:43.358Z,12.60
2022-09-01T15:00:09.871Z,13.45
2022-09-01T15:02:36.231Z,13.00
2022-09-01T15:05:02.824Z,12.73
2022-09-01T15:07:29.336Z,11.93
2022-09-01T15:09:55.707Z,11.18
2022-09-01T15:12:22.005Z,12.02
2022-09-01T15:14:48.339Z,11.70
2022-09-01T15:17:14.665Z,11.63
2022-09-01T15:19:41.476Z,11.23
2022-09-01T15:22:08.464Z,10.80
2022-09-01T15:24:34.802Z,11.65
2022-09-01T15:27:01.197Z,11.02
2022-09-01T15:29:27.663Z,11.65
2022-09-01T15:31:54.139Z,11.30
2022-09-01T15:34:20.716Z,11.07
2022-09-01T15:36:47.129Z,11.18
2022-09-01T15:39:13.474Z,11.18
2022-09-01T15:41:39.832Z,11.35
2022-09-01T15:44:06.261Z,11.18
2022-09-01T15:46:32.674Z,10.98
2022-09-01T15:48:59.164Z,11.63
2022-09-01T15:51:25.551Z,10.52
2022-09-01T15:53:51.908Z,10.57
2022-09-01T15:56:18.261Z,11.30
2022-09-01T15:59:00.212Z,10.90
2022-09-01T16:01:27.788Z,10.38
2022-09-01T16:03:54.298Z,9.80
2022-09-01T16:06:20.637Z,10.00
2022-09-01T16:08:47.772Z,10.02
2022-09-01T16:11:14.092Z,10.60
2022-09-01T16:13:40.438Z,9.68
2022-09-01T16:16:06.950Z,9.68
2022-09-01T16:18:33.562Z,9.38
2022-09-01T16:20:59.913Z,8.75
2022-09-01T16:23:26.635Z,9.45
2022-09-01T16:25:53.163Z,8.85
2022-09-01T16:28:19.439Z,8.75
2022-09-01T16:30:45.847Z,4.72
2022-09-01T16:33:12.444Z,3.50
2022-09-01T16:35:38.912Z,3.35
2022-09-01T16:38:05.242Z,3.08
2022-09-01T16:40:31.679Z,2.90
2022-09-01T16:42:58.311Z,2.40
2022-09-01T16:45:25.035Z,2.10
2022-09-01T16:47:52.983Z,2.20
2022-09-01T16:50:19.493Z,1.85
2022-09-01T16:52:45.790Z,2.22
2022-09-01T16:55:12.112Z,21.38
2022-09-01T16:57:38.371Z,39.40
2022-09-01T17:00:05.726Z,40.17
2022-09-01T17:02:32.214Z,23.25
2022-09-01T17:04:58.657Z,17.02
2022-09-01T17:07:29.447Z,11.20
2022-09-01T17:09:56.204Z,12.55
2022-09-01T17:12:22.578Z,8.60
2022-09-01T17:14:49.026Z,6.10
2022-09-01T17:17:15.414Z,5.47
2022-09-01T17:19:42.332Z,3.97
2022-09-01T17:22:08.786Z,3.60
2022-09-01T17:24:35.533Z,7.05
2022-09-01T17:27:02.761Z,6.57
2022-09-01T17:29:29.184Z,14.80
2022-09-01T17:31:55.493Z,22.75
2022-09-01T17:34:22.584Z,16.60
2022-09-01T17:36:49.152Z,11.20
2022-09-01T17:39:15.521Z,9.27
2022-09-01T17:41:41.937Z,6.30
2022-09-01T17:44:08.478Z,4.90
2022-09-01T17:46:34.877Z,3.80
2022-09-01T17:49:02.320Z,3.10
2022-09-01T17:51:29.758Z,2.75
2022-09-01T17:53:56.108Z,2.65
2022-09-01T17:56:23.560Z,13.27
2022-09-01T17:58:49.862Z,12.50
2022-09-01T18:01:16.388Z,12.82
2022-09-01T18:03:42.766Z,9.75
2022-09-01T18:06:09.211Z,5.80
2022-09-01T18:08:35.604Z,4.50
2022-09-01T18:11:02.439Z,3.30
2022-09-01T18:13:51.719Z,3.40
2022-09-01T18:16:15.242Z,2.72
2022-09-01T18:18:41.673Z,2.15
2022-09-01T18:21:08.061Z,2.75
2022-09-01T18:23:34.388Z,2.42
2022-09-01T18:26:00.925Z,1.75
2022-09-01T18:28:27.570Z,3.67
2022-09-01T18:30:54.971Z,5.68
2022-09-01T18:33:21.416Z,5.32
2022-09-01T18:35:48.113Z,6.55
2022-09-01T18:38:14.461Z,4.13
2022-09-01T18:40:40.806Z,2.83
2022-09-01T18:43:07.631Z,4.60
2022-09-01T18:45:33.992Z,3.25
2022-09-01T18:48:01.909Z,1.95
2022-09-01T18:50:28.254Z,2.10
2022-09-01T18:52:54.526Z,1.50
2022-09-01T18:55:20.998Z,1.90
2022-09-01T18:57:47.347Z,1.95
2022-09-01T19:00:18.782Z,2.40
2022-09-01T19:02:46.812Z,43.50
2022-09-01T19:05:13.530Z,88.78
2022-09-01T19:07:39.988Z,32.55
2022-09-01T19:10:06.427Z,10.07
2022-09-01T19:12:32.804Z,5.43
2022-09-01T19:14:59.152Z,3.58
2022-09-01T19:17:25.494Z,2.70
2022-09-01T19:19:51.921Z,2.60
2022-09-01T19:22:18.206Z,2.33
2022-09-01T19:24:44.531Z,2.47
2022-09-01T19:27:10.962Z,5.38
2022-09-01T19:29:37.363Z,4.82
2022-09-01T19:32:03.944Z,8.25
2022-09-01T19:34:30.308Z,14.00
2022-09-01T19:36:56.771Z,15.00
2022-09-01T19:39:23.256Z,7.82
2022-09-01T19:41:50.823Z,4.35
2022-09-01T19:44:17.241Z,2.58
2022-09-01T19:46:43.592Z,2.28
2022-09-01T19:49:10.217Z,2.00
2022-09-01T19:51:36.607Z,1.70
2022-09-01T19:54:03.260Z,1.90
2022-09-01T19:56:29.695Z,6.78
2022-09-01T19:58:56.250Z,10.27
2022-09-01T20:01:22.815Z,8.45
2022-09-01T20:03:49.318Z,6.55
2022-09-01T20:06:15.977Z,14.70
2022-09-01T20:08:43.073Z,19.05
2022-09-01T20:11:09.773Z,21.60
2022-09-01T20:13:36.174Z,22.42
2022-09-01T20:16:02.558Z,19.50
2022-09-01T20:18:28.912Z,39.70
2022-09-01T20:20:55.368Z,72.80
2022-09-01T20:23:21.942Z,175.35
2022-09-01T20:25:49.558Z,183.65
2022-09-01T20:28:15.860Z,174.02
2022-09-01T20:30:42.426Z,162.20
2022-09-01T20:33:10.126Z,153.82
2022-09-01T20:35:39.220Z,147.73
2022-09-01T20:38:06.463Z,144.02
2022-09-01T20:40:32.898Z,140.65
2022-09-01T20:42:59.335Z,142.25
2022-09-01T20:45:25.600Z,137.15
2022-09-01T20:47:52.000Z,130.65
2022-09-01T20:50:18.303Z,130.40
2022-09-01T20:52:44.607Z,128.32
2022-09-01T20:55:10.949Z,129.30
2022-09-01T20:57:37.273Z,123.53
2022-09-01T21:00:03.573Z,158.40
2022-09-01T21:02:30.111Z,210.77
2022-09-01T21:04:56.572Z,235.82
2022-09-01T21:07:22.850Z,229.90
2022-09-01T21:09:49.295Z,233.45
2022-09-01T21:12:15.590Z,231.10
2022-09-01T21:14:42.148Z,220.43
2022-09-01T21:17:08.658Z,231.27
2022-09-01T21:19:34.982Z,344.02
2022-09-01T21:22:01.336Z,396.30
2022-09-01T21:24:27.672Z,364.60
2022-09-01T21:26:54.142Z,342.50
2022-09-01T21:29:20.524Z,328.95
2022-09-01T21:31:48.483Z,323.58
2022-09-01T21:34:16.944Z,315.33
2022-09-01T21:36:43.524Z,317.60
2022-09-01T21:39:10.791Z,306.67
2022-09-01T21:41:38.913Z,298.48
2022-09-01T21:44:05.242Z,302.42
2022-09-01T21:46:31.547Z,282.27
2022-09-01T21:48:57.949Z,333.40
2022-09-01T21:51:24.522Z,474.23
2022-09-01T21:53:50.856Z,487.65
2022-09-01T21:56:17.475Z,455.45
2022-09-01T21:58:52.228Z,427.85
2022-09-01T22:01:18.644Z,413.98
2022-09-01T22:03:45.106Z,397.50
2022-09-01T22:06:11.717Z,300.52
2022-09-01T22:08:38.199Z,78.82
2022-09-01T22:11:04.541Z,282.83
2022-09-01T22:13:30.985Z,400.00
2022-09-01T22:15:57.749Z,364.45
2022-09-01T22:18:24.079Z,443.60
2022-09-01T22:20:50.416Z,422.48
2022-09-01T22:23:16.853Z,433.30
2022-09-01T22:25:43.196Z,430.15
2022-09-01T22:28:09.530Z,405.67
2022-09-01T22:30:36.038Z,402.63
2022-09-01T22:33:02.477Z,404.63
2022-09-01T22:35:29.021Z,392.85
2022-09-01T22:37:55.362Z,391.00
2022-09-01T22:40:22.898Z,387.77
2022-09-01T22:42:49.234Z,381.52
2022-09-01T22:45:15.552Z,373.92
2022-09-01T22:47:41.980Z,373.42
2022-09-01T22:50:08.383Z,358.08
2022-09-01T22:52:34.783Z,344.42
2022-09-01T22:55:01.064Z,344.88
2022-09-01T22:57:27.507Z,332.88
2022-09-01T22:59:53.864Z,337.55
2022-09-01T23:02:20.258Z,335.13
2022-09-01T23:04:46.772Z,331.13
2022-09-01T23:07:13.160Z,323.38
2022-09-01T23:09:39.483Z,315.92
2022-09-01T23:12:05.924Z,319.73
2022-09-01T23:14:32.276Z,320.35
2022-09-01T23:16:58.845Z,310.35
2022-09-01T23:19:25.270Z,308.17
2022-09-01T23:21:51.664Z,307.13
2022-09-01T23:24:19.814Z,303.98
2022-09-01T23:26:46.420Z,301.27
2022-09-01T23:29:13.080Z,296.02
2022-09-01T23:31:39.624Z,301.17
2022-09-01T23:34:06.244Z,293.08
2022-09-01T23:36:32.884Z,291.75
2022-09-01T23:38:59.301Z,288.17
2022-09-01T23:41:25.611Z,285.38
2022-09-01T23:43:51.964Z,292.63
2022-09-01T23:46:18.418Z,284.63
2022-09-01T23:48:44.813Z,275.00
2022-09-01T23:51:11.118Z,281.52
2022-09-01T23:53:37.455Z,277.95
2022-09-01T23:56:03.753Z,279.20
2022-09-01T23:58:30.058Z,271.55
